Time;durP1;ratioP1;P1;durP2;ratioP2;P2;SDS_P1;SDS_P2;PMS_P1;PMS_P2;Temp;Humidity;BMP_temperature;BMP_pressure;BME280_temperature;BME280_humidity;BME280_pressure;Samples;Min_cycle;Max_cycle;Signal;HPM_P1;HPM_P2
2021/11/28 08:17:38;;;;;;;48.08;18.90;;;;;;;0.50;81.46;96156.69;5780057;23;20197;-51
2021/11/28 08:20:06;;;;;;;46.22;16.58;;;;;;;0.35;81.79;96155.06;4853319;29;20033;-50
2021/11/28 08:22:31;;;;;;;47.88;17.58;;;;;;;0.23;82.35;96167.75;4846646;29;20627;-48
2021/11/28 08:24:56;;;;;;;52.92;18.15;;;;;;;0.38;82.78;96165.16;4857157;29;20044;-47
2021/11/28 08:27:22;;;;;;;45.38;18.05;;;;;;;0.40;82.95;96147.88;4868399;29;20096;-50
2021/11/28 08:29:47;;;;;;;51.13;18.80;;;;;;;0.45;82.69;96151.84;4876805;29;20039;-46
2021/11/28 08:32:13;;;;;;;44.75;16.95;;;;;;;0.48;82.82;96150.78;4857434;29;20041;-49
2021/11/28 08:34:38;;;;;;;43.03;16.52;;;;;;;0.45;82.57;96156.16;4857484;29;20034;-48
2021/11/28 08:37:04;;;;;;;37.65;17.63;;;;;;;0.30;81.57;96151.91;4859440;29;20032;-51
2021/11/28 08:39:30;;;;;;;39.92;15.80;;;;;;;0.44;81.98;96154.50;4859542;29;20036;-51
2021/11/28 08:41:55;;;;;;;42.53;16.65;;;;;;;0.16;82.19;96156.16;4868381;29;20463;-52
2021/11/28 08:44:20;;;;;;;42.08;16.85;;;;;;;0.02;83.30;96158.72;4877093;29;20032;-52
2021/11/28 08:46:46;;;;;;;44.38;16.48;;;;;;;-0.09;84.23;96155.97;4870835;29;20456;-49
2021/11/28 08:49:12;;;;;;;44.25;17.80;;;;;;;-0.19;83.96;96139.38;4853714;29;20085;-50
2021/11/28 08:51:37;;;;;;;39.92;17.80;;;;;;;0.02;83.41;96163.06;4845559;29;20037;-49
2021/11/28 08:54:03;;;;;;;59.08;20.20;;;;;;;0.11;82.72;96167.69;4841158;29;20030;-50
2021/11/28 08:56:28;;;;;;;179.15;44.42;;;;;;;0.25;82.44;96159.13;4840860;29;20022;-53
2021/11/28 08:58:53;;;;;;;150.88;47.20;;;;;;;0.12;83.47;96169.31;4841021;29;20022;-49
2021/11/28 09:01:19;;;;;;;41.40;16.00;;;;;;;0.23;82.66;96167.75;4841027;29;20026;-52
2021/11/28 09:03:44;;;;;;;57.33;22.85;;;;;;;0.26;83.27;96176.25;4847150;29;20032;-54
2021/11/28 09:06:11;;;;;;;63.90;28.88;;;;;;;0.44;83.64;96164.81;4858971;29;20397;-52
2021/11/28 09:08:37;;;;;;;43.13;19.25;;;;;;;0.83;80.84;96171.06;4859263;29;20049;-51
2021/11/28 09:11:05;;;;;;;48.00;17.55;;;;;;;0.96;80.58;96171.91;4859342;29;20029;-53
2021/11/28 09:13:32;;;;;;;51.85;21.10;;;;;;;1.19;79.79;96162.72;4859484;29;20501;-51
2021/11/28 09:15:58;;;;;;;61.42;23.67;;;;;;;0.95;81.13;96173.69;4880629;29;20025;-52
2021/11/28 09:18:27;;;;;;;52.92;21.25;;;;;;;1.36;79.12;96175.41;4879854;29;20067;-53
2021/11/28 09:20:58;;;;;;;55.25;22.92;;;;;;;1.10;80.67;96181.38;4881374;29;20100;-53
2021/11/28 09:26:08;;;;;;;41.85;17.27;;;;;;;0.81;81.27;96180.63;4880945;29;20465;-50
2021/11/28 09:28:35;;;;;;;45.38;18.92;;;;;;;0.93;81.20;96177.31;4879686;29;20469;-49
2021/11/28 09:31:01;;;;;;;48.25;19.65;;;;;;;0.75;81.72;96181.81;4861809;29;20398;-49
2021/11/28 09:33:26;;;;;;;53.78;23.08;;;;;;;0.52;82.90;96188.41;4881067;29;20031;-49
2021/11/28 09:35:52;;;;;;;59.17;26.10;;;;;;;0.54;82.31;96186.53;4880646;29;20032;-50
2021/11/28 09:38:17;;;;;;;68.80;29.80;;;;;;;0.43;83.15;96179.47;4880964;29;20024;-51
2021/11/28 09:40:44;;;;;;;61.65;29.58;;;;;;;0.43;82.60;96176.88;4879608;29;20389;-52
2021/11/28 09:43:09;;;;;;;66.53;27.80;;;;;;;0.60;82.69;96181.03;4864271;29;20027;-50
2021/11/28 09:45:34;;;;;;;57.70;27.17;;;;;;;0.65;82.05;96173.00;4863380;29;20040;-53
2021/11/28 09:48:00;;;;;;;61.17;27.65;;;;;;;0.55;82.26;96166.72;4880680;29;20250;-52
2021/11/28 09:50:26;;;;;;;55.85;26.67;;;;;;;0.43;82.20;96171.72;4877624;29;20386;-49
2021/11/28 09:52:52;;;;;;;51.20;23.05;;;;;;;0.61;81.50;96172.34;4843766;29;20406;-52
2021/11/28 09:55:17;;;;;;;52.40;22.50;;;;;;;0.92;80.91;96165.28;4842089;29;20479;-49
2021/11/28 09:57:43;;;;;;;49.72;25.00;;;;;;;0.79;81.80;96161.81;4857609;29;20026;-49
2021/11/28 10:00:10;;;;;;;54.78;26.90;;;;;;;0.74;82.28;96167.28;4842058;29;20030;-52
2021/11/28 10:02:36;;;;;;;57.70;26.52;;;;;;;0.94;82.06;96164.28;4857061;29;20494;-49
2021/11/28 10:05:06;;;;;;;54.58;23.63;;;;;;;1.28;80.87;96161.34;4861244;29;20033;-50
2021/11/28 10:07:31;;;;;;;57.40;25.77;;;;;;;1.16;81.35;96162.91;4861582;29;20036;-49
2021/11/28 10:09:57;;;;;;;49.17;23.60;;;;;;;1.06;81.88;96162.66;4861609;29;20033;-50
2021/11/28 10:12:29;;;;;;;48.90;21.70;;;;;;;0.95;81.92;96165.09;4862406;29;20026;-50
2021/11/28 10:14:59;;;;;;;55.00;22.50;;;;;;;0.87;82.30;96165.59;4842789;29;20026;-50
2021/11/28 10:17:30;;;;;;;52.40;21.90;;;;;;;0.74;82.56;96161.28;4842657;29;20478;-50
2021/11/28 10:19:59;;;;;;;58.22;27.13;;;;;;;0.91;81.63;96159.31;4843227;29;20386;-49
2021/11/28 10:22:25;;;;;;;66.65;28.45;;;;;;;1.00;81.51;96162.22;4850564;29;20109;-49
2021/11/28 10:24:56;;;;;;;76.10;34.40;;;;;;;1.06;81.56;96152.34;4861123;29;20029;-49
2021/11/28 10:27:41;;;;;;;51.70;21.98;;;;;;;1.00;82.00;96151.91;4860283;29;20025;-53
2021/11/28 10:30:08;;;;;;;50.20;23.60;;;;;;;0.97;81.80;96152.94;4861420;29;20029;-49
2021/11/28 10:32:37;;;;;;;44.45;20.33;;;;;;;1.17;81.24;96149.06;4860788;29;20061;-51
2021/11/28 10:35:03;;;;;;;45.70;21.23;;;;;;;0.65;83.65;96147.19;4844347;29;20045;-49
2021/11/28 10:37:29;;;;;;;49.75;21.35;;;;;;;1.11;82.03;96139.16;4844464;29;20041;-49
2021/11/28 10:39:58;;;;;;;46.88;21.30;;;;;;;0.97;82.65;96137.47;4859909;29;20021;-53
2021/11/28 10:42:31;;;;;;;56.13;23.58;;;;;;;1.08;82.08;96137.59;4878051;29;20115;-50
2021/11/28 10:45:07;;;;;;;55.25;22.77;;;;;;;1.44;80.02;96130.97;4879090;29;20032;-49
2021/11/28 10:47:41;;;;;;;49.45;23.05;;;;;;;1.66;79.79;96130.41;4879244;29;20107;-50
2021/11/28 10:50:11;;;;;;;51.38;21.38;;;;;;;1.55;78.55;96123.38;4879291;29;20028;-49
2021/11/28 10:52:37;;;;;;;48.30;22.27;;;;;;;1.33;80.54;96129.09;4877950;29;20040;-49
2021/11/28 10:55:32;;;;;;;49.67;23.02;;;;;;;1.69;79.34;96134.53;4878762;29;20029;-51
2021/11/28 10:58:05;;;;;;;66.00;26.80;;;;;;;1.52;79.33;96126.16;4858205;29;20037;-49
2021/11/28 11:00:31;;;;;;;48.53;21.35;;;;;;;1.30;79.82;96128.47;4858261;29;20025;-49
2021/11/28 11:02:56;;;;;;;48.20;21.20;;;;;;;1.26;80.84;96132.19;4856616;29;20085;-49
2021/11/28 11:05:22;;;;;;;52.63;22.65;;;;;;;1.25;80.94;96130.53;4857792;29;20042;-52
2021/11/28 11:07:51;;;;;;;53.40;22.23;;;;;;;1.71;79.14;96137.88;4858069;29;20048;-50
2021/11/28 11:10:18;;;;;;;47.90;21.33;;;;;;;1.91;77.30;96137.38;4858165;29;20037;-50
2021/11/28 11:12:44;;;;;;;50.28;21.10;;;;;;;1.58;79.15;96132.66;4856511;29;20037;-49
2021/11/28 11:15:09;;;;;;;42.28;18.80;;;;;;;1.34;79.04;96124.75;4857818;29;20093;-50
2021/11/28 11:17:36;;;;;;;43.83;19.55;;;;;;;1.19;80.52;96124.00;4857818;29;20092;-50
2021/11/28 11:20:02;;;;;;;42.97;19.80;;;;;;;1.10;80.62;96135.75;4857843;29;20030;-51
2021/11/28 11:22:30;;;;;;;45.28;19.85;;;;;;;1.23;80.27;96137.53;4857275;29;20146;-50
2021/11/28 11:25:00;;;;;;;42.05;19.27;;;;;;;1.06;80.66;96136.84;4857009;29;20089;-49
2021/11/28 11:27:33;;;;;;;46.15;19.15;;;;;;;1.21;80.02;96121.34;4857793;29;20033;-49
2021/11/28 11:30:10;;;;;;;46.25;19.55;;;;;;;1.28;80.44;96128.59;4857796;29;20033;-49
2021/11/28 11:32:44;;;;;;;45.75;19.38;;;;;;;1.13;81.14;96126.97;4857775;29;20489;-52
2021/11/28 11:35:15;;;;;;;50.50;19.95;;;;;;;1.34;80.48;96137.66;4873483;29;20097;-51
2021/11/28 11:37:40;;;;;;;47.45;19.42;;;;;;;1.45;79.46;96139.59;4878327;29;20084;-53
2021/11/28 11:40:09;;;;;;;46.88;18.45;;;;;;;1.25;80.42;96138.28;4878645;29;20029;-50
2021/11/28 11:42:36;;;;;;;45.38;19.88;;;;;;;1.40;80.52;96137.28;4878801;29;20438;-50
2021/11/28 11:45:01;;;;;;;47.47;19.75;;;;;;;1.54;79.35;96128.63;4875607;29;20127;-49
2021/11/28 11:47:26;;;;;;;39.95;18.40;;;;;;;1.71;78.99;96122.34;4882946;29;20104;-53
2021/11/28 11:49:52;;;;;;;48.35;19.98;;;;;;;1.69;79.51;96129.38;4888389;29;20537;-57
2021/11/28 11:52:17;;;;;;;47.28;20.10;;;;;;;1.35;80.06;96137.59;4873334;29;20068;-56
2021/11/28 11:54:50;;;;;;;42.95;19.33;;;;;;;1.64;79.35;96132.28;4872254;29;20548;-57
2021/11/28 11:57:33;;;;;;;36.88;17.33;;;;;;;1.62;78.47;96137.56;4868943;29;20490;-56
2021/11/28 12:00:05;;;;;;;42.55;18.42;;;;;;;1.72;78.16;96127.44;4854524;29;20033;-57
2021/11/28 12:02:42;;;;;;;44.72;19.75;;;;;;;2.05;78.48;96129.50;4867452;29;20029;-59
2021/11/28 12:05:31;;;;;;;45.97;20.17;;;;;;;2.14;78.19;96133.25;4877424;29;20112;-56
2021/11/28 12:08:04;;;;;;;45.08;19.58;;;;;;;2.07;76.35;96125.06;4859425;29;20409;-55
2021/11/28 12:10:36;;;;;;;50.15;24.23;;;;;;;1.90;77.89;96117.63;4866176;29;20123;-56
2021/11/28 12:13:15;;;;;;;51.38;22.25;;;;;;;2.19;77.21;96110.47;4867161;29;20026;-56
2021/11/28 12:15:48;;;;;;;44.70;19.65;;;;;;;2.38;76.60;96113.47;4867356;29;20030;-54
2021/11/28 12:18:49;;;;;;;47.72;20.23;;;;;;;2.56;77.17;96124.28;4882868;29;20507;-54
2021/11/28 12:21:19;;;;;;;38.63;17.23;;;;;;;2.27;76.88;96130.63;4885297;29;20033;-51
2021/11/28 12:23:56;;;;;;;42.88;17.27;;;;;;;1.98;77.00;96136.03;4885788;29;20338;-54
2021/11/28 12:26:25;;;;;;;39.72;18.02;;;;;;;1.70;77.87;96137.03;4887313;29;20049;-55
2021/11/28 12:28:50;;;;;;;43.08;18.33;;;;;;;1.81;77.93;96133.75;4891126;29;20088;-51
2021/11/28 12:31:27;;;;;;;40.65;19.85;;;;;;;1.71;77.67;96135.28;4889179;29;20025;-55
2021/11/28 12:33:52;;;;;;;39.72;19.00;;;;;;;1.96;76.77;96130.16;4887633;29;20097;-55
2021/11/28 12:36:38;;;;;;;113.78;40.40;;;;;;;1.80;78.22;96132.91;4883576;29;20068;-54
2021/11/28 12:39:10;;;;;;;55.90;23.17;;;;;;;1.77;79.12;96132.28;4883616;29;20037;-56
2021/11/28 12:41:48;;;;;;;53.63;22.90;;;;;;;2.00;77.86;96134.19;4877014;29;20029;-54
2021/11/28 12:44:14;;;;;;;61.78;25.67;;;;;;;1.89;78.01;96128.88;4868247;29;20029;-55
2021/11/28 12:46:47;;;;;;;58.40;24.33;;;;;;;1.89;78.53;96126.28;4855398;29;20049;-52
2021/11/28 12:49:26;;;;;;;98.85;36.90;;;;;;;1.95;78.87;96131.06;4861231;29;20029;-50
2021/11/28 12:51:51;;;;;;;99.07;36.80;;;;;;;1.95;78.85;96132.81;4865558;29;20081;-50
2021/11/28 12:54:26;;;;;;;63.22;27.05;;;;;;;2.09;79.08;96143.06;4866815;29;20017;-50
2021/11/28 12:57:19;;;;;;;93.68;38.15;;;;;;;1.89;79.50;96141.81;4867512;29;20379;-50
2021/11/28 13:00:09;;;;;;;65.80;27.65;;;;;;;2.03;79.60;96146.91;4868601;29;20081;-51
2021/11/28 13:02:51;;;;;;;56.88;27.35;;;;;;;1.82;79.02;96136.22;4868173;29;20033;-50
2021/11/28 13:05:29;;;;;;;54.85;22.65;;;;;;;1.94;79.79;96144.94;4881656;29;20052;-53
2021/11/28 13:08:00;;;;;;;60.53;23.90;;;;;;;1.77;80.12;96137.47;4868421;29;20037;-50
2021/11/28 13:10:48;;;;;;;47.45;22.33;;;;;;;1.83;79.09;96147.41;4868942;29;20034;-51
2021/11/28 13:13:15;;;;;;;62.30;26.38;;;;;;;1.75;79.85;96140.13;4866840;29;20110;-53
2021/11/28 13:15:48;;;;;;;45.67;21.42;;;;;;;1.89;80.01;96142.66;4867932;29;20409;-49
2021/11/28 13:18:36;;;;;;;41.53;18.50;;;;;;;1.96;78.99;96152.56;4851422;29;20029;-52
2021/11/28 13:21:06;;;;;;;43.50;19.80;;;;;;;1.96;79.19;96143.06;4868066;29;20029;-51
2021/11/28 13:23:31;;;;;;;46.33;18.48;;;;;;;2.05;78.66;96142.44;4865639;29;20801;-49
2021/11/28 13:25:57;;;;;;;45.83;19.40;;;;;;;1.91;79.67;96150.28;4867665;29;20029;-52
2021/11/28 13:28:27;;;;;;;42.30;18.00;;;;;;;1.77;80.23;96147.81;4867841;29;20074;-52
2021/11/28 13:31:01;;;;;;;47.55;20.20;;;;;;;1.80;79.85;96152.78;4867627;29;20089;-53
2021/11/28 13:33:29;;;;;;;40.25;17.88;;;;;;;1.86;80.10;96150.63;4866709;29;20505;-48
2021/11/28 13:36:04;;;;;;;45.90;20.33;;;;;;;1.93;79.32;96151.03;4867379;29;20029;-53
2021/11/28 13:38:33;;;;;;;44.13;18.35;;;;;;;2.04;79.22;96143.38;4867371;29;20490;-52
2021/11/28 13:41:23;;;;;;;44.17;20.33;;;;;;;2.00;79.77;96149.69;4867729;29;20085;-52
2021/11/28 13:44:00;;;;;;;43.33;20.52;;;;;;;2.19;79.21;96149.25;4847549;29;20026;-53
2021/11/28 13:46:47;;;;;;;44.90;20.20;;;;;;;2.11;79.14;96147.19;4848527;29;20033;-52
2021/11/28 13:49:16;;;;;;;59.97;23.42;;;;;;;2.11;79.01;96142.03;4874504;29;20060;-53
2021/11/28 13:51:54;;;;;;;42.63;18.30;;;;;;;2.32;77.48;96144.09;4884111;29;20032;-53
2021/11/28 13:54:20;;;;;;;47.15;22.10;;;;;;;2.04;78.65;96133.03;4848459;29;20101;-53
2021/11/28 13:56:53;;;;;;;97.97;30.15;;;;;;;2.14;77.65;96141.00;4848205;29;20434;-49
2021/11/28 13:59:21;;;;;;;116.20;39.45;;;;;;;1.94;78.70;96146.69;4848616;29;20281;-52
2021/11/28 14:02:05;;;;;;;105.93;34.95;;;;;;;2.28;78.36;96143.47;4847548;29;20030;-53
2021/11/28 14:04:30;;;;;;;79.55;26.30;;;;;;;2.33;77.84;96140.56;4866199;29;20040;-54
2021/11/28 14:06:55;;;;;;;53.40;23.52;;;;;;;2.66;77.37;96146.94;4866875;29;20025;-52
2021/11/28 14:09:21;;;;;;;43.97;21.50;;;;;;;2.42;77.08;96147.72;4864739;29;20474;-52
2021/11/28 14:11:49;;;;;;;50.13;22.30;;;;;;;2.31;77.05;96148.44;4865974;29;20033;-52
2021/11/28 14:14:14;;;;;;;92.80;35.53;;;;;;;2.56;75.84;96136.41;4868270;29;20040;-51
2021/11/28 14:16:46;;;;;;;48.15;19.60;;;;;;;2.19;77.36;96149.25;4865271;29;20124;-53
2021/11/28 14:19:11;;;;;;;45.22;18.75;;;;;;;2.13;78.10;96150.53;4864426;29;20068;-55
2021/11/28 14:21:38;;;;;;;43.08;19.05;;;;;;;1.97;78.22;96152.47;4863867;29;20026;-53
2021/11/28 14:24:26;;;;;;;48.08;25.95;;;;;;;1.77;79.25;96158.13;4855523;29;20033;-52
2021/11/28 14:26:52;;;;;;;53.22;24.65;;;;;;;1.79;79.42;96153.69;4868113;29;20033;-53
2021/11/28 14:29:27;;;;;;;43.08;19.00;;;;;;;1.86;78.60;96150.63;4867813;29;20207;-52
2021/11/28 14:31:59;;;;;;;43.15;18.67;;;;;;;2.01;78.43;96156.50;4863871;29;20044;-53
2021/11/28 14:34:24;;;;;;;146.85;38.25;;;;;;;2.05;78.74;96163.13;4863144;29;20025;-53
2021/11/28 14:36:50;;;;;;;155.38;42.03;;;;;;;2.00;78.92;96156.63;4856584;29;20032;-52
2021/11/28 14:39:17;;;;;;;373.92;88.82;;;;;;;2.14;77.96;96151.34;4864737;29;20029;-52
2021/11/28 14:41:46;;;;;;;163.38;46.95;;;;;;;2.14;77.76;96165.09;4866925;29;20517;-51
2021/11/28 14:44:21;;;;;;;91.65;29.73;;;;;;;2.11;77.60;96162.72;4864139;29;20048;-53
2021/11/28 14:46:46;;;;;;;146.05;41.25;;;;;;;2.17;78.04;96161.50;4867502;29;20036;-54
2021/11/28 14:49:20;;;;;;;64.72;26.27;;;;;;;2.17;77.75;96161.50;4863686;29;20033;-53
2021/11/28 14:51:50;;;;;;;163.65;42.78;;;;;;;2.05;78.27;96157.13;4865278;29;20033;-52
2021/11/28 14:54:17;;;;;;;151.48;43.05;;;;;;;2.17;77.81;96160.63;4863631;29;20107;-53
2021/11/28 14:56:45;;;;;;;69.20;27.30;;;;;;;1.99;78.53;96160.94;4864997;29;20060;-50
2021/11/28 14:59:27;;;;;;;142.73;40.35;;;;;;;2.07;78.27;96153.53;4865345;29;20039;-53
2021/11/28 15:02:05;;;;;;;155.48;43.33;;;;;;;2.05;78.33;96157.13;4864214;29;20081;-52
2021/11/28 15:04:31;;;;;;;56.03;22.17;;;;;;;2.01;78.00;96161.69;4865115;29;20037;-52
2021/11/28 15:06:57;;;;;;;51.88;22.63;;;;;;;1.81;79.29;96157.81;4880548;29;20055;-51
2021/11/28 15:09:25;;;;;;;49.38;22.92;;;;;;;1.55;80.71;96171.63;4865779;29;20033;-52
2021/11/28 15:11:50;;;;;;;43.22;20.80;;;;;;;1.39;81.26;96170.03;4865495;29;20113;-50
2021/11/28 15:14:16;;;;;;;45.60;20.98;;;;;;;1.45;81.32;96163.66;4863514;29;20394;-51
2021/11/28 15:16:41;;;;;;;40.55;19.02;;;;;;;1.59;80.53;96166.16;4866676;29;20045;-52
2021/11/28 15:19:17;;;;;;;44.42;20.38;;;;;;;1.70;80.32;96167.22;4865564;29;20100;-50
2021/11/28 15:21:43;;;;;;;73.40;27.58;;;;;;;1.86;79.45;96160.13;4866106;29;20049;-52
2021/11/28 15:24:09;;;;;;;69.18;28.98;;;;;;;1.75;79.86;96160.00;4865888;29;20044;-49
2021/11/28 15:26:34;;;;;;;63.85;25.15;;;;;;;1.73;80.05;96160.09;4866095;29;20029;-50
2021/11/28 15:29:00;;;;;;;54.72;24.65;;;;;;;1.46;81.25;96165.31;4861574;29;20038;-52
2021/11/28 15:31:27;;;;;;;47.15;22.60;;;;;;;1.71;80.52;96168.88;4866008;29;20029;-51
2021/11/28 15:33:52;;;;;;;48.13;22.00;;;;;;;1.75;80.31;96170.31;4865732;29;20088;-52
2021/11/28 15:36:18;;;;;;;60.53;23.73;;;;;;;1.58;80.44;96174.88;4866456;29;20030;-53
2021/11/28 15:38:43;;;;;;;53.67;23.67;;;;;;;1.57;80.54;96178.34;4867487;29;20474;-54
2021/11/28 15:41:09;;;;;;;54.20;24.73;;;;;;;1.44;81.31;96172.31;4866088;29;20037;-50
2021/11/28 15:43:34;;;;;;;51.13;24.50;;;;;;;1.36;81.42;96174.56;4863818;29;20033;-53
2021/11/28 15:46:02;;;;;;;54.58;25.58;;;;;;;1.32;81.73;96183.44;4864413;29;20408;-51
2021/11/28 15:48:28;;;;;;;49.38;24.20;;;;;;;1.44;81.16;96177.47;4865854;29;20058;-52
2021/11/28 15:50:53;;;;;;;48.60;24.15;;;;;;;1.43;81.32;96187.00;4879117;29;20037;-51
2021/11/28 15:53:19;;;;;;;49.88;21.23;;;;;;;1.64;80.92;96189.94;4883830;29;20033;-50
2021/11/28 15:55:44;;;;;;;51.33;23.58;;;;;;;1.21;82.19;96197.03;4866613;29;20029;-52
2021/11/28 15:58:09;;;;;;;51.28;22.27;;;;;;;1.29;81.98;96192.22;4865517;29;20033;-54
2021/11/28 16:00:35;;;;;;;41.58;18.67;;;;;;;1.30;81.60;96196.44;4866432;29;20101;-52
2021/11/28 16:03:00;;;;;;;46.47;19.50;;;;;;;1.23;82.32;96205.50;4865622;29;20033;-51
2021/11/28 16:05:26;;;;;;;44.30;18.38;;;;;;;1.11;82.51;96201.97;4864335;29;20500;-49
2021/11/28 16:07:51;;;;;;;44.10;18.77;;;;;;;1.08;82.76;96202.16;4864992;29;20041;-50
2021/11/28 16:10:17;;;;;;;43.45;19.92;;;;;;;1.12;82.44;96198.44;4862387;29;20038;-54
2021/11/28 16:12:42;;;;;;;43.42;19.52;;;;;;;1.17;82.04;96193.84;4862397;29;20045;-52
2021/11/28 16:15:08;;;;;;;46.10;18.70;;;;;;;1.11;82.75;96204.53;4865842;29;20029;-51
2021/11/28 16:17:34;;;;;;;44.35;20.73;;;;;;;1.04;82.60;96208.44;4865545;29;20029;-51
2021/11/28 16:19:59;;;;;;;46.25;19.92;;;;;;;0.98;82.50;96206.22;4865689;29;20112;-52
2021/11/28 16:22:25;;;;;;;47.45;18.33;;;;;;;1.28;82.18;96208.66;4865397;29;20506;-55
2021/11/28 16:24:51;;;;;;;43.70;18.75;;;;;;;1.29;81.61;96209.47;4865596;29;20038;-53
2021/11/28 16:27:16;;;;;;;48.45;18.23;;;;;;;1.30;81.79;96213.69;4868080;29;20043;-51
2021/11/28 16:29:42;;;;;;;50.42;20.38;;;;;;;1.17;82.06;96206.75;4868987;29;20060;-50
2021/11/28 16:32:07;;;;;;;63.05;22.50;;;;;;;1.21;81.64;96222.03;4870104;29;20025;-53
2021/11/28 16:34:33;;;;;;;144.85;46.30;;;;;;;1.21;81.54;96203.97;4867249;29;20025;-53
2021/11/28 16:36:58;;;;;;;185.57;62.88;;;;;;;1.38;81.66;96203.72;4869622;29;20030;-52
2021/11/28 16:39:23;;;;;;;275.98;104.00;;;;;;;1.62;80.15;96207.31;4868470;29;20029;-50
2021/11/28 16:41:49;;;;;;;195.98;75.55;;;;;;;1.49;81.68;96210.78;4882589;29;20092;-52
2021/11/28 16:44:14;;;;;;;190.68;50.28;;;;;;;1.22;81.59;96214.19;4887405;29;20029;-52
2021/11/28 16:46:40;;;;;;;92.70;36.95;;;;;;;1.13;82.26;96220.75;4887197;29;20041;-49
2021/11/28 16:49:05;;;;;;;103.40;32.97;;;;;;;1.32;81.54;96219.63;4887071;29;20374;-50
2021/11/28 16:51:31;;;;;;;147.93;45.20;;;;;;;1.53;81.09;96220.81;4884129;29;20113;-52
2021/11/28 16:53:56;;;;;;;137.98;54.63;;;;;;;1.61;80.10;96204.81;4878444;29;20040;-52
2021/11/28 16:56:24;;;;;;;92.93;39.55;;;;;;;1.48;81.07;96214.28;4868452;29;20072;-51
2021/11/28 16:58:49;;;;;;;205.20;54.90;;;;;;;1.57;80.54;96218.88;4867972;29;20026;-53
2021/11/28 17:01:15;;;;;;;257.48;58.33;;;;;;;1.29;81.97;96227.56;4869710;29;20051;-51
2021/11/28 17:03:40;;;;;;;156.95;41.70;;;;;;;1.27;82.01;96224.22;4878103;29;20040;-49
2021/11/28 17:06:05;;;;;;;68.07;26.33;;;;;;;1.17;81.94;96217.06;4867794;29;20030;-53
2021/11/28 17:08:31;;;;;;;255.00;57.97;;;;;;;1.09;83.00;96226.22;4868237;29;20145;-51
2021/11/28 17:10:56;;;;;;;288.63;61.80;;;;;;;1.04;83.30;96230.84;4868222;29;20037;-51
2021/11/28 17:13:21;;;;;;;433.58;99.93;;;;;;;0.98;83.40;96226.88;4870028;29;20049;-53
2021/11/28 17:15:47;;;;;;;167.30;43.42;;;;;;;1.04;84.71;96229.09;4867963;29;20030;-49
2021/11/28 17:18:13;;;;;;;156.73;47.20;;;;;;;1.06;82.99;96229.81;4871556;29;20038;-53
2021/11/28 17:20:39;;;;;;;188.55;58.95;;;;;;;1.18;81.90;96218.72;4868819;29;20045;-49
2021/11/28 17:23:07;;;;;;;174.05;56.38;;;;;;;1.08;82.56;96233.13;4866753;29;20029;-52
2021/11/28 17:25:33;;;;;;;93.90;32.38;;;;;;;1.10;82.52;96233.88;4868050;29;20021;-53
2021/11/28 17:28:00;;;;;;;193.35;53.67;;;;;;;1.26;81.49;96230.31;4879447;29;20033;-52
2021/11/28 17:30:25;;;;;;;282.30;75.35;;;;;;;1.15;82.46;96239.56;4886815;29;20037;-49
2021/11/28 17:32:51;;;;;;;97.88;35.92;;;;;;;1.15;82.78;96244.72;4883662;29;20115;-53
2021/11/28 17:35:16;;;;;;;116.93;38.33;;;;;;;1.02;83.02;96243.81;4866745;29;20359;-51
2021/11/28 17:37:44;;;;;;;146.77;47.40;;;;;;;0.99;83.73;96248.34;4866644;29;20037;-53
2021/11/28 17:40:11;;;;;;;105.70;39.53;;;;;;;1.21;82.88;96247.88;4866813;29;20033;-49
2021/11/28 17:42:37;;;;;;;73.82;31.98;;;;;;;1.36;82.17;96247.72;4867006;29;20038;-52
2021/11/28 17:45:04;;;;;;;69.78;31.17;;;;;;;1.34;82.00;96261.66;4866636;29;20039;-49
2021/11/28 17:47:29;;;;;;;86.18;32.35;;;;;;;1.25;82.22;96257.91;4865665;29;20565;-53
2021/11/28 17:49:55;;;;;;;97.38;36.83;;;;;;;1.42;81.61;96246.53;4866833;29;20034;-51
2021/11/28 17:52:20;;;;;;;106.70;39.60;;;;;;;1.51;81.42;96250.25;4866203;29;20032;-52
2021/11/28 17:54:45;;;;;;;73.80;29.58;;;;;;;1.72;80.11;96253.22;4866435;29;20026;-54
2021/11/28 17:57:11;;;;;;;77.47;33.85;;;;;;;1.62;80.36;96251.25;4866877;29;20026;-53
2021/11/28 17:59:36;;;;;;;82.55;32.63;;;;;;;1.71;79.65;96260.16;4874553;29;20027;-51
2021/11/28 18:02:02;;;;;;;59.78;26.10;;;;;;;1.65;79.84;96257.97;4885536;29;20021;-52
2021/11/28 18:04:27;;;;;;;68.45;28.88;;;;;;;1.62;79.56;96259.00;4866262;29;20042;-53
2021/11/28 18:06:52;;;;;;;66.28;27.15;;;;;;;1.65;79.48;96253.66;4865936;29;20036;-51
2021/11/28 18:09:18;;;;;;;73.18;31.63;;;;;;;1.69;79.35;96256.88;4865526;29;20092;-52
2021/11/28 18:11:43;;;;;;;60.20;25.60;;;;;;;1.74;79.00;96256.56;4866284;29;20454;-55
2021/11/28 18:14:09;;;;;;;62.90;28.17;;;;;;;1.71;79.04;96247.25;4872296;29;20039;-52
2021/11/28 18:16:34;;;;;;;67.95;31.02;;;;;;;1.60;80.10;96260.84;4879678;29;20038;-55
2021/11/28 18:19:00;;;;;;;119.22;46.13;;;;;;;1.42;80.72;96252.50;4870492;29;20037;-52
2021/11/28 18:21:25;;;;;;;87.18;35.75;;;;;;;1.50;80.53;96259.78;4884162;29;20401;-54
2021/11/28 18:23:50;;;;;;;74.57;31.20;;;;;;;1.57;80.33;96261.03;4880741;29;20052;-50
2021/11/28 18:26:20;;;;;;;82.90;34.40;;;;;;;1.34;81.13;96259.94;4864489;29;20098;-52
2021/11/28 18:28:46;;;;;;;63.63;26.40;;;;;;;1.59;80.30;96260.97;4865576;29;20446;-54
2021/11/28 18:31:12;;;;;;;78.95;32.92;;;;;;;1.26;81.52;96261.31;4865917;29;20451;-53
2021/11/28 18:33:37;;;;;;;88.43;35.63;;;;;;;1.23;81.95;96271.84;4865355;29;20025;-54
2021/11/28 18:36:03;;;;;;;74.82;31.88;;;;;;;1.35;81.77;96274.50;4864410;29;20036;-52
2021/11/28 18:38:28;;;;;;;90.70;35.15;;;;;;;1.28;81.88;96277.56;4864324;29;20021;-53
2021/11/28 18:40:53;;;;;;;98.97;41.42;;;;;;;1.18;82.32;96269.53;4858069;29;20028;-52
2021/11/28 18:43:19;;;;;;;97.35;41.35;;;;;;;1.09;82.68;96275.25;4884881;29;20029;-51
2021/11/28 18:45:45;;;;;;;110.15;51.33;;;;;;;0.97;83.23;96276.84;4876127;29;20025;-53
2021/11/28 18:48:10;;;;;;;109.50;53.80;;;;;;;1.00;82.91;96263.75;4862721;29;20036;-49
2021/11/28 18:50:35;;;;;;;85.82;34.70;;;;;;;1.02;82.88;96269.66;4861428;29;20390;-47
2021/11/28 18:53:01;;;;;;;70.70;30.38;;;;;;;0.74;84.33;96272.25;4859876;29;20037;-51
2021/11/28 18:55:26;;;;;;;58.75;26.50;;;;;;;0.82;83.90;96280.34;4864290;29;20494;-48
2021/11/28 18:57:55;;;;;;;55.50;23.42;;;;;;;0.92;83.36;96276.28;4860612;29;20034;-50
2021/11/28 19:00:24;;;;;;;54.55;24.90;;;;;;;0.74;83.74;96267.91;4861451;29;20038;-51
2021/11/28 19:02:49;;;;;;;55.33;25.30;;;;;;;0.78;84.09;96281.47;4861023;29;20037;-51
2021/11/28 19:05:15;;;;;;;62.22;28.20;;;;;;;0.80;83.76;96274.47;4860790;29;20018;-49
2021/11/28 19:07:40;;;;;;;93.25;46.90;;;;;;;0.87;84.10;96280.91;4860309;29;20486;-50
2021/11/28 19:10:07;;;;;;;134.82;64.82;;;;;;;0.96;84.01;96280.34;4874147;29;20088;-53
2021/11/28 19:12:32;;;;;;;80.65;40.60;;;;;;;1.22;82.70;96278.75;4879340;29;20039;-53
2021/11/28 19:14:58;;;;;;;84.85;41.08;;;;;;;1.10;83.02;96277.78;4879107;29;20021;-49
2021/11/28 19:17:24;;;;;;;76.10;35.00;;;;;;;0.99;83.72;96272.41;4873770;29;20025;-50
2021/11/28 19:19:49;;;;;;;74.53;35.50;;;;;;;1.04;83.43;96283.31;4859308;29;20038;-49
2021/11/28 19:22:15;;;;;;;82.43;34.72;;;;;;;1.23;83.09;96288.16;4860469;29;20029;-54
2021/11/28 19:24:40;;;;;;;79.82;34.22;;;;;;;1.34;82.13;96287.47;4861046;29;20044;-49
2021/11/28 19:27:05;;;;;;;69.10;30.40;;;;;;;1.29;82.00;96284.38;4860447;29;20035;-50
2021/11/28 19:29:31;;;;;;;84.63;35.83;;;;;;;0.98;83.45;96294.00;4860181;29;20033;-50
2021/11/28 19:31:59;;;;;;;79.30;36.10;;;;;;;0.82;84.31;96286.34;4860555;29;20446;-52
2021/11/28 19:34:24;;;;;;;70.68;29.38;;;;;;;0.66;84.61;96283.03;4860075;29;20053;-51
2021/11/28 19:36:51;;;;;;;63.60;26.40;;;;;;;0.73;84.50;96289.50;4856063;29;20148;-51
2021/11/28 19:39:17;;;;;;;66.00;26.55;;;;;;;0.40;85.59;96292.31;4858774;29;20504;-51
2021/11/28 19:41:43;;;;;;;61.72;26.55;;;;;;;0.51;85.62;96292.50;4856710;29;20129;-53
2021/11/28 19:44:09;;;;;;;60.97;25.58;;;;;;;0.42;85.92;96296.47;4852849;29;20032;-49
2021/11/28 19:46:35;;;;;;;61.78;26.08;;;;;;;0.42;85.94;96298.22;4860074;29;20116;-52
2021/11/28 19:49:00;;;;;;;66.13;27.67;;;;;;;0.38;86.06;96299.28;4860372;29;20071;-54